sensor_id;sensor_type;location;lat;lon;timestamp;temperature;humidity
81842;DHT22;71284;50.918;7.092;2023-11-21T00:02:11;12.50;64.80
81842;DHT22;71284;50.918;7.092;2023-11-21T00:04:38;12.50;65.00
81842;DHT22;71284;50.918;7.092;2023-11-21T00:07:05;12.40;65.10
81842;DHT22;71284;50.918;7.092;2023-11-21T00:09:32;12.50;65.10
81842;DHT22;71284;50.918;7.092;2023-11-21T00:11:58;12.50;65.00
81842;DHT22;71284;50.918;7.092;2023-11-21T00:14:25;12.50;65.00
81842;DHT22;71284;50.918;7.092;2023-11-21T00:16:52;12.50;65.00
81842;DHT22;71284;50.918;7.092;2023-11-21T00:19:19;12.50;64.90
81842;DHT22;71284;50.918;7.092;2023-11-21T00:21:45;12.40;64.80
81842;DHT22;71284;50.918;7.092;2023-11-21T00:24:12;12.50;65.00
81842;DHT22;71284;50.918;7.092;2023-11-21T00:26:39;12.40;65.00
81842;DHT22;71284;50.918;7.092;2023-11-21T00:29:05;12.50;64.80
81842;DHT22;71284;50.918;7.092;2023-11-21T00:31:34;12.50;64.80
81842;DHT22;71284;50.918;7.092;2023-11-21T00:34:03;12.40;64.80
81842;DHT22;71284;50.918;7.092;2023-11-21T00:36:30;12.30;65.20
81842;DHT22;71284;50.918;7.092;2023-11-21T00:38:56;12.30;65.20
81842;DHT22;71284;50.918;7.092;2023-11-21T00:41:23;12.30;65.50
81842;DHT22;71284;50.918;7.092;2023-11-21T00:43:49;12.40;65.00
81842;DHT22;71284;50.918;7.092;2023-11-21T00:46:16;12.40;64.40
81842;DHT22;71284;50.918;7.092;2023-11-21T00:48:43;12.40;64.10
81842;DHT22;71284;50.918;7.092;2023-11-21T00:51:09;12.40;64.20
81842;DHT22;71284;50.918;7.092;2023-11-21T00:53:36;12.30;64.50
81842;DHT22;71284;50.918;7.092;2023-11-21T00:56:03;12.30;64.40
81842;DHT22;71284;50.918;7.092;2023-11-21T00:58:29;12.30;64.20
81842;DHT22;71284;50.918;7.092;2023-11-21T01:00:56;12.20;63.90
81842;DHT22;71284;50.918;7.092;2023-11-21T01:03:23;12.20;64.00
81842;DHT22;71284;50.918;7.092;2023-11-21T01:05:49;12.10;64.30
81842;DHT22;71284;50.918;7.092;2023-11-21T01:08:16;12.00;64.60
81842;DHT22;71284;50.918;7.092;2023-11-21T01:10:42;12.00;64.50
81842;DHT22;71284;50.918;7.092;2023-11-21T01:13:09;11.90;65.00
81842;DHT22;71284;50.918;7.092;2023-11-21T01:15:35;11.90;65.00
81842;DHT22;71284;50.918;7.092;2023-11-21T01:18:02;11.90;65.20
81842;DHT22;71284;50.918;7.092;2023-11-21T01:20:29;11.90;65.20
81842;DHT22;71284;50.918;7.092;2023-11-21T01:22:55;12.00;65.00
81842;DHT22;71284;50.918;7.092;2023-11-21T01:25:22;12.00;64.90
81842;DHT22;71284;50.918;7.092;2023-11-21T01:27:48;11.90;64.80
81842;DHT22;71284;50.918;7.092;2023-11-21T01:30:15;11.90;64.60
81842;DHT22;71284;50.918;7.092;2023-11-21T01:32:42;11.80;64.40
81842;DHT22;71284;50.918;7.092;2023-11-21T01:35:08;11.80;64.20
81842;DHT22;71284;50.918;7.092;2023-11-21T01:37:35;11.70;64.20
81842;DHT22;71284;50.918;7.092;2023-11-21T01:40:02;11.80;64.10
81842;DHT22;71284;50.918;7.092;2023-11-21T01:42:34;11.80;64.20
81842;DHT22;71284;50.918;7.092;2023-11-21T01:45:01;11.70;64.60
81842;DHT22;71284;50.918;7.092;2023-11-21T01:47:28;11.70;64.70
81842;DHT22;71284;50.918;7.092;2023-11-21T01:49:54;11.80;64.60
81842;DHT22;71284;50.918;7.092;2023-11-21T01:52:21;11.70;64.60
81842;DHT22;71284;50.918;7.092;2023-11-21T01:54:47;11.70;64.70
81842;DHT22;71284;50.918;7.092;2023-11-21T01:57:14;11.70;64.60
81842;DHT22;71284;50.918;7.092;2023-11-21T01:59:41;11.70;64.70
81842;DHT22;71284;50.918;7.092;2023-11-21T02:02:07;11.60;64.80
81842;DHT22;71284;50.918;7.092;2023-11-21T02:04:34;11.60;64.60
81842;DHT22;71284;50.918;7.092;2023-11-21T02:07:00;11.60;64.20
81842;DHT22;71284;50.918;7.092;2023-11-21T02:09:27;11.50;64.50
81842;DHT22;71284;50.918;7.092;2023-11-21T02:11:53;11.60;64.50
81842;DHT22;71284;50.918;7.092;2023-11-21T02:14:20;11.60;64.40
81842;DHT22;71284;50.918;7.092;2023-11-21T02:16:47;11.60;64.50
81842;DHT22;71284;50.918;7.092;2023-11-21T02:19:13;11.50;65.20
81842;DHT22;71284;50.918;7.092;2023-11-21T02:21:40;11.50;65.10
81842;DHT22;71284;50.918;7.092;2023-11-21T02:24:07;11.50;65.00
81842;DHT22;71284;50.918;7.092;2023-11-21T02:26:34;11.50;64.70
81842;DHT22;71284;50.918;7.092;2023-11-21T02:29:00;11.60;64.90
81842;DHT22;71284;50.918;7.092;2023-11-21T02:31:27;11.60;64.50
81842;DHT22;71284;50.918;7.092;2023-11-21T02:33:53;11.50;64.60
81842;DHT22;71284;50.918;7.092;2023-11-21T02:36:20;11.50;64.60
81842;DHT22;71284;50.918;7.092;2023-11-21T02:38:47;11.40;64.80
81842;DHT22;71284;50.918;7.092;2023-11-21T02:41:13;11.30;65.10
81842;DHT22;71284;50.918;7.092;2023-11-21T02:43:40;11.20;65.10
81842;DHT22;71284;50.918;7.092;2023-11-21T02:46:08;11.30;65.10
81842;DHT22;71284;50.918;7.092;2023-11-21T02:48:33;11.30;65.70
81842;DHT22;71284;50.918;7.092;2023-11-21T02:51:00;11.20;65.30
81842;DHT22;71284;50.918;7.092;2023-11-21T02:53:26;11.20;65.50
81842;DHT22;71284;50.918;7.092;2023-11-21T02:55:53;11.20;65.40
81842;DHT22;71284;50.918;7.092;2023-11-21T02:58:19;11.30;64.90
81842;DHT22;71284;50.918;7.092;2023-11-21T03:00:46;11.30;64.90
81842;DHT22;71284;50.918;7.092;2023-11-21T03:03:13;11.40;64.60
81842;DHT22;71284;50.918;7.092;2023-11-21T03:05:39;11.40;64.80
81842;DHT22;71284;50.918;7.092;2023-11-21T03:08:06;11.40;64.70
81842;DHT22;71284;50.918;7.092;2023-11-21T03:10:32;11.40;64.80
81842;DHT22;71284;50.918;7.092;2023-11-21T03:12:59;11.40;65.10
81842;DHT22;71284;50.918;7.092;2023-11-21T03:15:26;11.40;64.80
81842;DHT22;71284;50.918;7.092;2023-11-21T03:17:52;11.40;64.70
81842;DHT22;71284;50.918;7.092;2023-11-21T03:20:19;11.40;64.70
81842;DHT22;71284;50.918;7.092;2023-11-21T03:22:45;11.50;64.80
81842;DHT22;71284;50.918;7.092;2023-11-21T03:25:12;11.50;64.90
81842;DHT22;71284;50.918;7.092;2023-11-21T03:27:39;11.60;64.70
81842;DHT22;71284;50.918;7.092;2023-11-21T03:30:07;11.60;64.80
81842;DHT22;71284;50.918;7.092;2023-11-21T03:32:33;11.60;64.70
81842;DHT22;71284;50.918;7.092;2023-11-21T03:34:59;11.70;64.50
81842;DHT22;71284;50.918;7.092;2023-11-21T03:37:25;11.70;64.60
81842;DHT22;71284;50.918;7.092;2023-11-21T03:39:52;11.70;64.60
81842;DHT22;71284;50.918;7.092;2023-11-21T03:42:19;11.70;64.40
81842;DHT22;71284;50.918;7.092;2023-11-21T03:44:45;11.70;64.40
81842;DHT22;71284;50.918;7.092;2023-11-21T03:47:12;11.70;64.60
81842;DHT22;71284;50.918;7.092;2023-11-21T03:49:38;11.70;64.80
81842;DHT22;71284;50.918;7.092;2023-11-21T03:52:05;11.80;64.40
81842;DHT22;71284;50.918;7.092;2023-11-21T03:54:32;11.80;64.20
81842;DHT22;71284;50.918;7.092;2023-11-21T03:56:58;11.70;64.50
81842;DHT22;71284;50.918;7.092;2023-11-21T03:59:25;11.70;64.80
81842;DHT22;71284;50.918;7.092;2023-11-21T04:01:52;11.60;64.40
81842;DHT22;71284;50.918;7.092;2023-11-21T04:04:18;11.70;64.60
81842;DHT22;71284;50.918;7.092;2023-11-21T04:06:45;11.70;64.60
81842;DHT22;71284;50.918;7.092;2023-11-21T04:09:11;11.70;64.40
81842;DHT22;71284;50.918;7.092;2023-11-21T04:11:38;11.60;64.40
81842;DHT22;71284;50.918;7.092;2023-11-21T04:14:05;11.70;64.30
81842;DHT22;71284;50.918;7.092;2023-11-21T04:16:31;11.60;64.40
81842;DHT22;71284;50.918;7.092;2023-11-21T04:18:58;11.60;64.20
81842;DHT22;71284;50.918;7.092;2023-11-21T04:21:24;11.70;64.30
81842;DHT22;71284;50.918;7.092;2023-11-21T04:23:51;11.70;64.30
81842;DHT22;71284;50.918;7.092;2023-11-21T04:26:18;11.70;64.20
81842;DHT22;71284;50.918;7.092;2023-11-21T04:28:44;11.70;64.20
81842;DHT22;71284;50.918;7.092;2023-11-21T04:31:11;11.60;64.40
81842;DHT22;71284;50.918;7.092;2023-11-21T04:33:37;11.60;64.90
81842;DHT22;71284;50.918;7.092;2023-11-21T04:36:04;11.60;64.60
81842;DHT22;71284;50.918;7.092;2023-11-21T04:38:31;11.70;64.30
81842;DHT22;71284;50.918;7.092;2023-11-21T04:40:57;11.60;64.20
81842;DHT22;71284;50.918;7.092;2023-11-21T04:43:24;11.60;64.70
81842;DHT22;71284;50.918;7.092;2023-11-21T04:45:51;11.40;65.20
81842;DHT22;71284;50.918;7.092;2023-11-21T04:48:17;11.40;65.30
81842;DHT22;71284;50.918;7.092;2023-11-21T04:50:44;11.50;64.80
81842;DHT22;71284;50.918;7.092;2023-11-21T04:53:10;11.50;64.30
81842;DHT22;71284;50.918;7.092;2023-11-21T04:55:37;11.50;64.40
81842;DHT22;71284;50.918;7.092;2023-11-21T04:58:04;11.60;64.40
81842;DHT22;71284;50.918;7.092;2023-11-21T05:00:30;11.60;64.40
81842;DHT22;71284;50.918;7.092;2023-11-21T05:02:57;11.60;64.50
81842;DHT22;71284;50.918;7.092;2023-11-21T05:05:23;11.60;64.30
81842;DHT22;71284;50.918;7.092;2023-11-21T05:07:50;11.60;64.10
81842;DHT22;71284;50.918;7.092;2023-11-21T05:10:17;11.70;64.20
81842;DHT22;71284;50.918;7.092;2023-11-21T05:12:43;11.60;64.60
81842;DHT22;71284;50.918;7.092;2023-11-21T05:15:12;11.60;64.60
81842;DHT22;71284;50.918;7.092;2023-11-21T05:17:37;11.60;64.40
81842;DHT22;71284;50.918;7.092;2023-11-21T05:20:05;11.70;64.00
81842;DHT22;71284;50.918;7.092;2023-11-21T05:22:31;11.80;63.70
81842;DHT22;71284;50.918;7.092;2023-11-21T05:24:58;11.80;63.60
81842;DHT22;71284;50.918;7.092;2023-11-21T05:27:25;11.80;63.70
81842;DHT22;71284;50.918;7.092;2023-11-21T05:29:51;11.80;63.60
81842;DHT22;71284;50.918;7.092;2023-11-21T05:32:18;11.70;64.00
81842;DHT22;71284;50.918;7.092;2023-11-21T05:34:44;11.70;63.90
81842;DHT22;71284;50.918;7.092;2023-11-21T05:37:11;11.60;64.20
81842;DHT22;71284;50.918;7.092;2023-11-21T05:39:38;11.60;64.40
81842;DHT22;71284;50.918;7.092;2023-11-21T05:42:05;11.60;64.30
81842;DHT22;71284;50.918;7.092;2023-11-21T05:44:32;11.70;64.20
81842;DHT22;71284;50.918;7.092;2023-11-21T05:46:58;11.70;64.10
81842;DHT22;71284;50.918;7.092;2023-11-21T05:49:25;11.70;64.10
81842;DHT22;71284;50.918;7.092;2023-11-21T05:51:53;11.70;64.30
81842;DHT22;71284;50.918;7.092;2023-11-21T05:54:18;11.70;64.20
81842;DHT22;71284;50.918;7.092;2023-11-21T05:56:45;11.80;64.30
81842;DHT22;71284;50.918;7.092;2023-11-21T05:59:11;11.70;64.10
81842;DHT22;71284;50.918;7.092;2023-11-21T06:01:38;11.70;64.50
81842;DHT22;71284;50.918;7.092;2023-11-21T06:04:05;11.70;64.70
81842;DHT22;71284;50.918;7.092;2023-11-21T06:06:31;11.70;64.70
81842;DHT22;71284;50.918;7.092;2023-11-21T06:08:58;11.60;65.00
81842;DHT22;71284;50.918;7.092;2023-11-21T06:11:24;11.60;64.80
81842;DHT22;71284;50.918;7.092;2023-11-21T06:13:51;11.70;64.60
81842;DHT22;71284;50.918;7.092;2023-11-21T06:16:17;11.80;64.40
81842;DHT22;71284;50.918;7.092;2023-11-21T06:18:45;11.80;64.10
81842;DHT22;71284;50.918;7.092;2023-11-21T06:21:11;11.80;64.30
81842;DHT22;71284;50.918;7.092;2023-11-21T06:23:38;11.80;64.30
81842;DHT22;71284;50.918;7.092;2023-11-21T06:26:05;11.80;64.30
81842;DHT22;71284;50.918;7.092;2023-11-21T06:28:31;11.90;64.40
81842;DHT22;71284;50.918;7.092;2023-11-21T06:30:58;11.90;64.30
81842;DHT22;71284;50.918;7.092;2023-11-21T06:33:24;11.90;64.20
81842;DHT22;71284;50.918;7.092;2023-11-21T06:35:51;11.80;64.50
81842;DHT22;71284;50.918;7.092;2023-11-21T06:38:18;11.90;64.90
81842;DHT22;71284;50.918;7.092;2023-11-21T06:40:44;11.90;64.70
81842;DHT22;71284;50.918;7.092;2023-11-21T06:43:11;12.00;64.50
81842;DHT22;71284;50.918;7.092;2023-11-21T06:45:37;12.00;64.40
81842;DHT22;71284;50.918;7.092;2023-11-21T06:48:04;11.90;64.80
81842;DHT22;71284;50.918;7.092;2023-11-21T06:50:31;11.90;64.80
81842;DHT22;71284;50.918;7.092;2023-11-21T06:52:57;12.00;64.60
81842;DHT22;71284;50.918;7.092;2023-11-21T06:55:24;12.10;64.40
81842;DHT22;71284;50.918;7.092;2023-11-21T06:57:50;12.10;65.30
81842;DHT22;71284;50.918;7.092;2023-11-21T07:00:17;12.00;65.00
81842;DHT22;71284;50.918;7.092;2023-11-21T07:02:44;11.90;65.00
81842;DHT22;71284;50.918;7.092;2023-11-21T07:05:10;11.90;65.20
81842;DHT22;71284;50.918;7.092;2023-11-21T07:07:37;11.90;65.00
81842;DHT22;71284;50.918;7.092;2023-11-21T07:10:04;11.90;64.90
81842;DHT22;71284;50.918;7.092;2023-11-21T07:12:30;12.00;64.60
81842;DHT22;71284;50.918;7.092;2023-11-21T07:14:57;12.10;64.60
81842;DHT22;71284;50.918;7.092;2023-11-21T07:17:24;12.10;64.30
81842;DHT22;71284;50.918;7.092;2023-11-21T07:19:50;12.00;64.60
81842;DHT22;71284;50.918;7.092;2023-11-21T07:22:17;12.00;64.40
81842;DHT22;71284;50.918;7.092;2023-11-21T07:24:49;12.10;64.20
81842;DHT22;71284;50.918;7.092;2023-11-21T07:27:15;12.10;64.10
81842;DHT22;71284;50.918;7.092;2023-11-21T07:29:42;12.10;64.20
81842;DHT22;71284;50.918;7.092;2023-11-21T07:32:09;12.20;64.20
81842;DHT22;71284;50.918;7.092;2023-11-21T07:34:36;12.10;64.00
81842;DHT22;71284;50.918;7.092;2023-11-21T07:37:02;12.10;63.70
81842;DHT22;71284;50.918;7.092;2023-11-21T07:39:29;12.20;63.90
81842;DHT22;71284;50.918;7.092;2023-11-21T07:41:55;12.20;63.70
81842;DHT22;71284;50.918;7.092;2023-11-21T07:44:23;12.20;63.50
81842;DHT22;71284;50.918;7.092;2023-11-21T07:46:49;12.30;63.90
81842;DHT22;71284;50.918;7.092;2023-11-21T07:49:16;12.20;64.20
81842;DHT22;71284;50.918;7.092;2023-11-21T07:51:43;12.20;64.10
81842;DHT22;71284;50.918;7.092;2023-11-21T07:54:09;12.20;64.00
81842;DHT22;71284;50.918;7.092;2023-11-21T07:56:36;12.20;64.10
81842;DHT22;71284;50.918;7.092;2023-11-21T07:59:02;12.20;64.10
81842;DHT22;71284;50.918;7.092;2023-11-21T08:01:29;12.30;64.20
81842;DHT22;71284;50.918;7.092;2023-11-21T08:03:55;12.30;63.80
81842;DHT22;71284;50.918;7.092;2023-11-21T08:06:23;12.30;64.20
81842;DHT22;71284;50.918;7.092;2023-11-21T08:08:49;12.30;64.00
81842;DHT22;71284;50.918;7.092;2023-11-21T08:11:15;12.40;63.60
81842;DHT22;71284;50.918;7.092;2023-11-21T08:13:42;12.40;63.60
81842;DHT22;71284;50.918;7.092;2023-11-21T08:16:08;12.50;63.30
81842;DHT22;71284;50.918;7.092;2023-11-21T08:18:35;12.50;63.50
81842;DHT22;71284;50.918;7.092;2023-11-21T08:21:02;12.60;63.30
81842;DHT22;71284;50.918;7.092;2023-11-21T08:23:28;12.70;63.60
81842;DHT22;71284;50.918;7.092;2023-11-21T08:25:55;12.70;63.60
81842;DHT22;71284;50.918;7.092;2023-11-21T08:28:21;12.80;63.50
81842;DHT22;71284;50.918;7.092;2023-11-21T08:30:48;12.80;63.60
81842;DHT22;71284;50.918;7.092;2023-11-21T08:33:15;12.80;63.60
81842;DHT22;71284;50.918;7.092;2023-11-21T08:35:41;12.90;63.00
81842;DHT22;71284;50.918;7.092;2023-11-21T08:38:08;12.90;63.10
81842;DHT22;71284;50.918;7.092;2023-11-21T08:40:34;12.90;63.10
81842;DHT22;71284;50.918;7.092;2023-11-21T08:43:01;12.90;63.30
81842;DHT22;71284;50.918;7.092;2023-11-21T08:45:28;13.00;63.20
81842;DHT22;71284;50.918;7.092;2023-11-21T08:47:54;13.00;63.40
81842;DHT22;71284;50.918;7.092;2023-11-21T08:50:21;13.00;64.00
81842;DHT22;71284;50.918;7.092;2023-11-21T08:52:48;13.10;63.20
81842;DHT22;71284;50.918;7.092;2023-11-21T08:55:14;13.10;63.30
81842;DHT22;71284;50.918;7.092;2023-11-21T08:57:41;13.10;63.40
81842;DHT22;71284;50.918;7.092;2023-11-21T09:00:07;13.10;63.20
81842;DHT22;71284;50.918;7.092;2023-11-21T09:02:43;13.10;62.90
81842;DHT22;71284;50.918;7.092;2023-11-21T09:05:12;13.20;63.30
81842;DHT22;71284;50.918;7.092;2023-11-21T09:07:39;13.20;63.20
81842;DHT22;71284;50.918;7.092;2023-11-21T09:10:05;13.20;63.40
81842;DHT22;71284;50.918;7.092;2023-11-21T09:12:32;13.30;63.30
81842;DHT22;71284;50.918;7.092;2023-11-21T09:14:59;13.30;62.80
81842;DHT22;71284;50.918;7.092;2023-11-21T09:17:25;13.20;63.30
81842;DHT22;71284;50.918;7.092;2023-11-21T09:19:52;13.30;63.30
81842;DHT22;71284;50.918;7.092;2023-11-21T09:22:18;13.20;63.60
81842;DHT22;71284;50.918;7.092;2023-11-21T09:24:45;13.10;64.00
81842;DHT22;71284;50.918;7.092;2023-11-21T09:27:11;13.20;63.50
81842;DHT22;71284;50.918;7.092;2023-11-21T09:29:38;13.30;63.20
81842;DHT22;71284;50.918;7.092;2023-11-21T09:32:05;13.30;62.80
81842;DHT22;71284;50.918;7.092;2023-11-21T09:34:33;13.40;62.60
81842;DHT22;71284;50.918;7.092;2023-11-21T09:36:58;13.50;62.20
81842;DHT22;71284;50.918;7.092;2023-11-21T09:39:25;13.50;62.40
81842;DHT22;71284;50.918;7.092;2023-11-21T09:41:52;13.50;62.90
81842;DHT22;71284;50.918;7.092;2023-11-21T09:44:29;13.30;63.20
81842;DHT22;71284;50.918;7.092;2023-11-21T09:46:47;13.20;63.20
81842;DHT22;71284;50.918;7.092;2023-11-21T09:49:12;13.30;63.00
81842;DHT22;71284;50.918;7.092;2023-11-21T09:51:40;13.30;63.00
81842;DHT22;71284;50.918;7.092;2023-11-21T09:54:06;13.40;62.90
81842;DHT22;71284;50.918;7.092;2023-11-21T09:56:32;13.50;62.90
81842;DHT22;71284;50.918;7.092;2023-11-21T09:58:59;13.60;62.60
81842;DHT22;71284;50.918;7.092;2023-11-21T10:01:26;13.60;62.10
81842;DHT22;71284;50.918;7.092;2023-11-21T10:03:52;13.60;62.10
81842;DHT22;71284;50.918;7.092;2023-11-21T10:06:19;13.50;62.80
81842;DHT22;71284;50.918;7.092;2023-11-21T10:08:46;13.50;62.50
81842;DHT22;71284;50.918;7.092;2023-11-21T10:11:12;13.50;62.80
81842;DHT22;71284;50.918;7.092;2023-11-21T10:13:39;13.60;62.60
81842;DHT22;71284;50.918;7.092;2023-11-21T10:16:05;13.60;63.10
81842;DHT22;71284;50.918;7.092;2023-11-21T10:18:33;13.60;62.90
81842;DHT22;71284;50.918;7.092;2023-11-21T10:20:59;13.60;62.90
81842;DHT22;71284;50.918;7.092;2023-11-21T10:23:26;13.60;62.70
81842;DHT22;71284;50.918;7.092;2023-11-21T10:25:52;13.70;62.80
81842;DHT22;71284;50.918;7.092;2023-11-21T10:28:19;13.70;62.80
81842;DHT22;71284;50.918;7.092;2023-11-21T10:30:45;13.70;62.80
81842;DHT22;71284;50.918;7.092;2023-11-21T10:33:12;13.60;63.10
81842;DHT22;71284;50.918;7.092;2023-11-21T10:35:39;13.80;62.80
81842;DHT22;71284;50.918;7.092;2023-11-21T10:38:05;13.80;62.70
81842;DHT22;71284;50.918;7.092;2023-11-21T10:40:31;13.80;62.90
81842;DHT22;71284;50.918;7.092;2023-11-21T10:43:13;13.60;62.00
81842;DHT22;71284;50.918;7.092;2023-11-21T10:45:40;13.60;62.80
81842;DHT22;71284;50.918;7.092;2023-11-21T10:48:06;13.60;62.40
81842;DHT22;71284;50.918;7.092;2023-11-21T10:50:34;13.60;62.20
81842;DHT22;71284;50.918;7.092;2023-11-21T10:53:01;13.50;62.40
81842;DHT22;71284;50.918;7.092;2023-11-21T10:55:27;13.50;62.70
81842;DHT22;71284;50.918;7.092;2023-11-21T10:57:54;13.60;62.30
81842;DHT22;71284;50.918;7.092;2023-11-21T11:00:21;13.70;62.80
81842;DHT22;71284;50.918;7.092;2023-11-21T11:02:50;13.70;62.30
81842;DHT22;71284;50.918;7.092;2023-11-21T11:05:16;13.70;62.00
81842;DHT22;71284;50.918;7.092;2023-11-21T11:07:42;13.80;62.00
81842;DHT22;71284;50.918;7.092;2023-11-21T11:10:09;13.70;61.90
81842;DHT22;71284;50.918;7.092;2023-11-21T11:12:35;13.70;62.10
81842;DHT22;71284;50.918;7.092;2023-11-21T11:15:02;13.70;61.80
81842;DHT22;71284;50.918;7.092;2023-11-21T11:17:29;13.70;62.30
81842;DHT22;71284;50.918;7.092;2023-11-21T11:19:55;13.80;62.50
81842;DHT22;71284;50.918;7.092;2023-11-21T11:22:30;13.70;62.60
81842;DHT22;71284;50.918;7.092;2023-11-21T11:25:53;13.70;62.30
81842;DHT22;71284;50.918;7.092;2023-11-21T11:28:03;13.70;62.50
81842;DHT22;71284;50.918;7.092;2023-11-21T11:30:50;13.80;62.30
81842;DHT22;71284;50.918;7.092;2023-11-21T11:33:31;13.80;62.00
81842;DHT22;71284;50.918;7.092;2023-11-21T11:36:13;13.80;62.20
81842;DHT22;71284;50.918;7.092;2023-11-21T11:38:37;13.90;62.10
81842;DHT22;71284;50.918;7.092;2023-11-21T11:41:04;13.90;62.10
81842;DHT22;71284;50.918;7.092;2023-11-21T11:43:30;13.80;61.70
81842;DHT22;71284;50.918;7.092;2023-11-21T11:45:57;13.90;61.80
81842;DHT22;71284;50.918;7.092;2023-11-21T11:48:23;13.80;61.80
81842;DHT22;71284;50.918;7.092;2023-11-21T11:51:01;13.90;61.60
81842;DHT22;71284;50.918;7.092;2023-11-21T11:53:27;13.90;62.00
81842;DHT22;71284;50.918;7.092;2023-11-21T11:58:37;14.10;61.50
81842;DHT22;71284;50.918;7.092;2023-11-21T12:00:59;14.10;60.90
81842;DHT22;71284;50.918;7.092;2023-11-21T12:03:25;14.20;60.50
81842;DHT22;71284;50.918;7.092;2023-11-21T12:05:52;14.20;61.30
81842;DHT22;71284;50.918;7.092;2023-11-21T12:08:18;14.10;61.70
81842;DHT22;71284;50.918;7.092;2023-11-21T12:10:45;14.10;60.60
81842;DHT22;71284;50.918;7.092;2023-11-21T12:13:12;14.10;61.70
81842;DHT22;71284;50.918;7.092;2023-11-21T12:15:38;14.10;61.30
81842;DHT22;71284;50.918;7.092;2023-11-21T12:18:05;14.10;61.40
81842;DHT22;71284;50.918;7.092;2023-11-21T12:20:31;14.10;60.90
81842;DHT22;71284;50.918;7.092;2023-11-21T12:22:59;14.10;61.10
81842;DHT22;71284;50.918;7.092;2023-11-21T12:25:26;14.10;61.40
81842;DHT22;71284;50.918;7.092;2023-11-21T12:27:52;14.00;61.20
81842;DHT22;71284;50.918;7.092;2023-11-21T12:30:20;14.10;61.60
81842;DHT22;71284;50.918;7.092;2023-11-21T12:32:49;14.20;60.90
81842;DHT22;71284;50.918;7.092;2023-11-21T12:35:14;14.30;60.80
81842;DHT22;71284;50.918;7.092;2023-11-21T12:37:41;14.30;61.20
81842;DHT22;71284;50.918;7.092;2023-11-21T12:40:08;14.40;61.00
81842;DHT22;71284;50.918;7.092;2023-11-21T12:42:35;14.40;60.50
81842;DHT22;71284;50.918;7.092;2023-11-21T12:45:10;14.50;60.40
81842;DHT22;71284;50.918;7.092;2023-11-21T12:47:38;14.50;61.10
81842;DHT22;71284;50.918;7.092;2023-11-21T12:50:05;14.60;61.20
81842;DHT22;71284;50.918;7.092;2023-11-21T12:52:32;14.50;60.40
81842;DHT22;71284;50.918;7.092;2023-11-21T12:54:58;14.60;59.80
81842;DHT22;71284;50.918;7.092;2023-11-21T12:57:26;14.50;59.70
81842;DHT22;71284;50.918;7.092;2023-11-21T12:59:56;14.60;60.30
81842;DHT22;71284;50.918;7.092;2023-11-21T13:02:20;14.70;60.40
81842;DHT22;71284;50.918;7.092;2023-11-21T13:04:51;14.70;60.70
81842;DHT22;71284;50.918;7.092;2023-11-21T13:07:13;14.70;60.20
81842;DHT22;71284;50.918;7.092;2023-11-21T13:09:40;14.60;60.20
81842;DHT22;71284;50.918;7.092;2023-11-21T13:12:06;14.50;59.50
81842;DHT22;71284;50.918;7.092;2023-11-21T13:14:33;14.40;59.50
81842;DHT22;71284;50.918;7.092;2023-11-21T13:17:00;14.40;60.10
81842;DHT22;71284;50.918;7.092;2023-11-21T13:19:26;14.30;59.60
81842;DHT22;71284;50.918;7.092;2023-11-21T13:21:53;14.30;60.40
81842;DHT22;71284;50.918;7.092;2023-11-21T13:24:20;14.20;60.60
81842;DHT22;71284;50.918;7.092;2023-11-21T13:26:46;14.20;60.60
81842;DHT22;71284;50.918;7.092;2023-11-21T13:29:13;14.10;60.30
81842;DHT22;71284;50.918;7.092;2023-11-21T13:31:39;14.30;60.60
81842;DHT22;71284;50.918;7.092;2023-11-21T13:34:06;14.40;60.50
81842;DHT22;71284;50.918;7.092;2023-11-21T13:36:33;14.30;59.90
81842;DHT22;71284;50.918;7.092;2023-11-21T13:38:59;14.20;59.90
81842;DHT22;71284;50.918;7.092;2023-11-21T13:41:26;14.20;61.00
81842;DHT22;71284;50.918;7.092;2023-11-21T13:43:54;14.20;60.90
81842;DHT22;71284;50.918;7.092;2023-11-21T13:46:21;14.30;60.90
81842;DHT22;71284;50.918;7.092;2023-11-21T13:48:48;14.10;60.40
81842;DHT22;71284;50.918;7.092;2023-11-21T13:51:14;14.00;60.50
81842;DHT22;71284;50.918;7.092;2023-11-21T13:53:44;14.10;60.50
81842;DHT22;71284;50.918;7.092;2023-11-21T13:56:10;14.10;60.30
81842;DHT22;71284;50.918;7.092;2023-11-21T13:58:37;14.00;60.60
81842;DHT22;71284;50.918;7.092;2023-11-21T14:01:09;14.10;60.20
81842;DHT22;71284;50.918;7.092;2023-11-21T14:03:36;14.00;61.00
81842;DHT22;71284;50.918;7.092;2023-11-21T14:06:04;14.20;60.50
81842;DHT22;71284;50.918;7.092;2023-11-21T14:08:30;14.20;60.30
81842;DHT22;71284;50.918;7.092;2023-11-21T14:10:57;14.20;60.30
81842;DHT22;71284;50.918;7.092;2023-11-21T14:13:24;14.10;59.70
81842;DHT22;71284;50.918;7.092;2023-11-21T14:15:50;14.10;59.80
81842;DHT22;71284;50.918;7.092;2023-11-21T14:18:17;14.10;59.90
81842;DHT22;71284;50.918;7.092;2023-11-21T14:20:43;14.10;59.90
81842;DHT22;71284;50.918;7.092;2023-11-21T14:23:10;14.20;59.80
81842;DHT22;71284;50.918;7.092;2023-11-21T14:25:37;14.10;59.60
81842;DHT22;71284;50.918;7.092;2023-11-21T14:28:03;14.10;59.80
81842;DHT22;71284;50.918;7.092;2023-11-21T14:30:30;14.10;60.00
81842;DHT22;71284;50.918;7.092;2023-11-21T14:32:59;14.10;60.40
81842;DHT22;71284;50.918;7.092;2023-11-21T14:35:26;14.10;60.60
81842;DHT22;71284;50.918;7.092;2023-11-21T14:37:53;14.10;60.50
81842;DHT22;71284;50.918;7.092;2023-11-21T14:40:20;14.10;60.50
81842;DHT22;71284;50.918;7.092;2023-11-21T14:42:45;14.10;60.50
81842;DHT22;71284;50.918;7.092;2023-11-21T14:45:12;14.10;60.60
81842;DHT22;71284;50.918;7.092;2023-11-21T14:47:39;14.10;60.90
81842;DHT22;71284;50.918;7.092;2023-11-21T14:50:05;14.10;60.80
81842;DHT22;71284;50.918;7.092;2023-11-21T14:52:32;14.10;61.20
81842;DHT22;71284;50.918;7.092;2023-11-21T14:55:01;13.90;61.00
81842;DHT22;71284;50.918;7.092;2023-11-21T14:57:46;13.90;61.00
81842;DHT22;71284;50.918;7.092;2023-11-21T15:00:14;13.90;61.00
81842;DHT22;71284;50.918;7.092;2023-11-21T15:02:40;13.90;61.80
81842;DHT22;71284;50.918;7.092;2023-11-21T15:05:13;13.90;61.70
81842;DHT22;71284;50.918;7.092;2023-11-21T15:07:40;13.90;62.10
81842;DHT22;71284;50.918;7.092;2023-11-21T15:10:07;13.90;62.50
81842;DHT22;71284;50.918;7.092;2023-11-21T15:12:34;13.80;62.10
81842;DHT22;71284;50.918;7.092;2023-11-21T15:15:01;13.90;62.20
81842;DHT22;71284;50.918;7.092;2023-11-21T15:17:27;13.90;62.50
81842;DHT22;71284;50.918;7.092;2023-11-21T15:19:54;13.80;62.40
81842;DHT22;71284;50.918;7.092;2023-11-21T15:22:20;13.80;62.80
81842;DHT22;71284;50.918;7.092;2023-11-21T15:24:47;13.70;62.50
81842;DHT22;71284;50.918;7.092;2023-11-21T15:27:14;13.70;62.10
81842;DHT22;71284;50.918;7.092;2023-11-21T15:29:40;13.80;62.00
81842;DHT22;71284;50.918;7.092;2023-11-21T15:32:07;13.80;62.30